Terminal Aerodrome Forecast
Issued by NWS

Home | Current Version | Previous Version | Text Only | Print | Product List | Glossary On
Versions: 1 2 3 4 5 6 7 8 9 10 11 12 13 14 15 16 17 18 19 20 21 22 23 24 25 26 27 28 29 30 31 32 33 34 35
000
FTAK31 PANC 270524
TAFADU
TAF
PADU 270524Z 2706/2806 15020G30KT P6SM VCSH SCT025 BKN050 OVC080
      TEMPO 2706/2710 6SM -RA BKN025
     FM271000 14018G28KT P6SM -SHRA SCT025 BKN035 OVC050
     FM271800 17008G16KT P6SM -SHRA BKN025 OVC050
      AMD NOT SKED=

USA.gov is the U.S. government's official web portal to all federal, state and local government web resources and services.